createdAt,value
2019-03-12T00:00:16.156Z,1022.1
2019-03-12T00:01:16.194Z,1022.3
2019-03-12T00:02:16.174Z,1022.2
2019-03-12T00:03:16.208Z,1022.3
2019-03-12T00:04:16.193Z,1022.3
2019-03-12T00:05:16.190Z,1022.3
2019-03-12T00:06:16.206Z,1022.3
2019-03-12T00:07:16.200Z,1022.3
2019-03-12T00:08:16.209Z,1022.4
2019-03-12T00:09:16.214Z,1022.4
2019-03-12T00:10:16.239Z,1022.4
2019-03-12T00:11:18.479Z,1022.4
2019-03-12T00:12:16.208Z,1022.4
2019-03-12T00:13:16.243Z,1022.5
2019-03-12T00:14:16.306Z,1022.5
2019-03-12T00:15:16.277Z,1022.5
2019-03-12T00:17:16.264Z,1022.5
2019-03-12T00:18:16.282Z,1022.6
2019-03-12T00:19:16.293Z,1022.7
2019-03-12T00:20:16.335Z,1022.7
2019-03-12T00:21:16.280Z,1022.7
2019-03-12T00:22:16.306Z,1022.7
2019-03-12T00:23:16.284Z,1022.7
2019-03-12T00:24:16.360Z,1022.7
2019-03-12T00:25:16.424Z,1022.6
2019-03-12T00:26:16.296Z,1022.7
2019-03-12T00:27:16.329Z,1022.7
2019-03-12T00:28:16.327Z,1022.8
2019-03-12T00:29:16.338Z,1022.8
2019-03-12T00:30:16.375Z,1022.9
2019-03-12T00:31:16.377Z,1022.8
2019-03-12T00:32:16.376Z,1022.8
2019-03-12T00:33:16.409Z,1022.9
2019-03-12T00:34:16.411Z,1022.8
2019-03-12T00:35:16.394Z,1022.8
2019-03-12T00:36:16.404Z,1022.9
2019-03-12T00:37:16.408Z,1022.8
2019-03-12T00:38:16.410Z,1022.8
2019-03-12T00:39:16.462Z,1022.9
2019-03-12T00:40:16.410Z,1022.9
2019-03-12T00:41:16.432Z,1022.8
2019-03-12T00:42:16.444Z,1022.9
2019-03-12T00:43:16.415Z,1022.9
2019-03-12T00:44:16.433Z,1023
2019-03-12T00:45:16.496Z,1022.9
2019-03-12T00:46:16.456Z,1023
2019-03-12T00:47:16.450Z,1022.9
2019-03-12T00:48:16.438Z,1023
2019-03-12T00:49:16.430Z,1023
2019-03-12T00:50:16.454Z,1023
2019-03-12T00:51:16.505Z,1023.1
2019-03-12T00:52:16.450Z,1023
2019-03-12T00:53:16.490Z,1023.1
2019-03-12T00:54:16.583Z,1023.1
2019-03-12T00:55:16.455Z,1023.1
2019-03-12T00:56:17.000Z,1023.1
2019-03-12T00:57:16.504Z,1023.1
2019-03-12T00:58:16.505Z,1023.1
2019-03-12T00:59:16.515Z,1023.1
2019-03-12T01:00:16.504Z,1023.3
2019-03-12T01:01:16.511Z,1023.2
2019-03-12T01:02:16.492Z,1023.2
2019-03-12T01:03:16.508Z,1023.2
2019-03-12T01:04:16.527Z,1023.4
2019-03-12T01:05:16.547Z,1023.3
2019-03-12T01:06:16.587Z,1023.4
2019-03-12T01:07:16.554Z,1023.4
2019-03-12T01:08:17.328Z,1023.3
2019-03-12T01:09:16.542Z,1023.3
2019-03-12T01:10:16.560Z,1023.3
2019-03-12T01:11:16.551Z,1023.3
2019-03-12T01:12:16.544Z,1023.5
2019-03-12T01:13:16.571Z,1023.4
2019-03-12T01:14:16.597Z,1023.4
2019-03-12T01:15:16.628Z,1023.4
2019-03-12T01:16:16.561Z,1023.3
2019-03-12T01:17:16.576Z,1023.4
2019-03-12T01:18:16.558Z,1023.3
2019-03-12T01:19:16.597Z,1023.3
2019-03-12T01:20:16.649Z,1023.4
2019-03-12T01:21:16.905Z,1023.4
2019-03-12T01:22:16.606Z,1023.3
2019-03-12T01:23:16.647Z,1023.4
2019-03-12T01:24:16.590Z,1023.4
2019-03-12T01:25:16.610Z,1023.5
2019-03-12T01:26:16.678Z,1023.5
2019-03-12T01:28:24.625Z,1023.5
2019-03-12T01:29:16.629Z,1023.4
2019-03-12T01:31:16.624Z,1023.6
2019-03-12T01:32:16.662Z,1023.5
2019-03-12T01:33:16.639Z,1023.5
2019-03-12T01:34:16.657Z,1023.5
2019-03-12T01:35:16.683Z,1023.5
2019-03-12T01:36:16.717Z,1023.5
2019-03-12T01:37:16.669Z,1023.5
2019-03-12T01:38:16.682Z,1023.6
2019-03-12T01:39:16.726Z,1023.5
2019-03-12T01:40:16.673Z,1023.7
2019-03-12T01:41:16.732Z,1023.6
2019-03-12T01:42:16.722Z,1023.6
2019-03-12T01:43:19.204Z,1023.7
2019-03-12T01:44:16.697Z,1023.7
2019-03-12T01:45:16.766Z,1023.7
2019-03-12T01:46:16.756Z,1023.7
2019-03-12T01:47:16.712Z,1023.8
2019-03-12T01:48:16.872Z,1023.8
2019-03-12T01:49:16.856Z,1023.8
2019-03-12T01:50:16.765Z,1023.8
2019-03-12T01:51:16.794Z,1023.8
2019-03-12T01:52:16.776Z,1023.8
2019-03-12T01:53:16.761Z,1023.7
2019-03-12T01:54:16.795Z,1023.9
2019-03-12T01:55:16.779Z,1023.9
2019-03-12T01:56:16.846Z,1023.9
2019-03-12T01:57:16.834Z,1023.9
2019-03-12T01:58:16.813Z,1023.8
2019-03-12T01:59:16.815Z,1023.9
2019-03-12T02:00:16.826Z,1023.9
2019-03-12T02:01:16.803Z,1024
2019-03-12T02:02:16.827Z,1023.9
2019-03-12T02:03:16.837Z,1023.9
2019-03-12T02:04:16.863Z,1024
2019-03-12T02:05:16.855Z,1024
2019-03-12T02:06:16.875Z,1024
2019-03-12T02:07:16.878Z,1024
2019-03-12T02:08:16.930Z,1024
2019-03-12T02:09:16.886Z,1024.1
2019-03-12T02:10:16.880Z,1024
2019-03-12T02:11:16.904Z,1024
2019-03-12T02:12:16.885Z,1024
2019-03-12T02:13:16.891Z,1024
2019-03-12T02:14:16.882Z,1024
2019-03-12T02:15:16.940Z,1024.2
2019-03-12T02:16:16.944Z,1024.2
2019-03-12T02:17:16.924Z,1024.2
2019-03-12T02:18:16.904Z,1024.2
2019-03-12T02:19:16.930Z,1024.3
2019-03-12T02:20:16.950Z,1024.3
2019-03-12T02:21:16.954Z,1024.3
2019-03-12T02:22:16.954Z,1024.2
2019-03-12T02:23:16.929Z,1024.3
2019-03-12T02:24:16.945Z,1024.2
2019-03-12T02:25:16.952Z,1024.2
2019-03-12T02:26:16.939Z,1024.3
2019-03-12T02:27:16.955Z,1024.3
2019-03-12T02:28:16.970Z,1024.3
2019-03-12T02:29:16.968Z,1024.3
2019-03-12T02:30:16.963Z,1024.2
2019-03-12T02:31:16.965Z,1024.2
2019-03-12T02:32:16.961Z,1024.3
2019-03-12T02:33:16.989Z,1024.3
2019-03-12T02:34:18.117Z,1024.3
2019-03-12T02:35:16.990Z,1024.3
2019-03-12T02:36:17.027Z,1024.4
2019-03-12T02:37:17.014Z,1024.3
2019-03-12T02:38:17.044Z,1024.3
2019-03-12T02:39:17.080Z,1024.4
2019-03-12T02:40:17.031Z,1024.4
2019-03-12T02:41:17.075Z,1024.4
2019-03-12T02:42:17.049Z,1024.5
2019-03-12T02:43:17.255Z,1024.5
2019-03-12T02:44:17.060Z,1024.4
2019-03-12T02:45:17.156Z,1024.4
2019-03-12T02:46:17.118Z,1024.4
2019-03-12T02:47:18.136Z,1024.4
2019-03-12T02:48:17.104Z,1024.4
2019-03-12T02:49:17.150Z,1024.4
2019-03-12T02:50:17.132Z,1024.5
2019-03-12T02:51:17.201Z,1024.5
2019-03-12T02:52:17.134Z,1024.6
2019-03-12T02:53:17.175Z,1024.5
2019-03-12T02:54:17.326Z,1024.4
2019-03-12T02:55:17.188Z,1024.5
2019-03-12T02:56:17.239Z,1024.5
2019-03-12T02:57:17.310Z,1024.5
2019-03-12T02:58:17.214Z,1024.6
2019-03-12T02:59:17.216Z,1024.6
2019-03-12T03:00:17.226Z,1024.6
2019-03-12T03:01:17.244Z,1024.7
2019-03-12T03:02:17.241Z,1024.7
2019-03-12T03:03:17.277Z,1024.6
2019-03-12T03:04:17.293Z,1024.7
2019-03-12T03:05:17.300Z,1024.7
2019-03-12T03:06:17.345Z,1024.7
2019-03-12T03:07:17.387Z,1024.8
2019-03-12T03:08:17.586Z,1024.8
2019-03-12T03:09:17.326Z,1024.8
2019-03-12T03:10:17.333Z,1024.9
2019-03-12T03:11:17.399Z,1024.9
2019-03-12T03:12:17.394Z,1024.9
2019-03-12T03:13:17.522Z,1024.9
2019-03-12T03:14:17.379Z,1024.9
2019-03-12T03:15:17.429Z,1024.9
2019-03-12T03:16:17.430Z,1024.9
2019-03-12T03:17:17.432Z,1025
2019-03-12T03:18:17.437Z,1025
2019-03-12T03:19:17.445Z,1025
2019-03-12T03:20:17.426Z,1024.8
2019-03-12T03:21:17.458Z,1024.9
2019-03-12T03:22:17.458Z,1024.9
2019-03-12T03:23:17.452Z,1024.9
2019-03-12T03:24:17.505Z,1025
2019-03-12T03:25:17.491Z,1024.9
2019-03-12T03:26:17.486Z,1025
2019-03-12T03:27:17.494Z,1025
2019-03-12T03:28:17.617Z,1025
2019-03-12T03:29:17.573Z,1024.9
2019-03-12T03:30:17.540Z,1025.1
2019-03-12T03:31:17.683Z,1025.1
2019-03-12T03:32:17.591Z,1025
2019-03-12T03:33:17.624Z,1025.1
2019-03-12T03:34:17.633Z,1025.1
2019-03-12T03:35:17.649Z,1025
2019-03-12T03:36:17.620Z,1025.1
2019-03-12T03:37:17.645Z,1025.2
2019-03-12T03:38:17.680Z,1025.1
2019-03-12T03:39:17.632Z,1025
2019-03-12T03:40:17.639Z,1025
2019-03-12T03:41:17.646Z,1025
2019-03-12T03:42:17.790Z,1025
2019-03-12T03:43:17.663Z,1025.1
2019-03-12T03:44:17.659Z,1025.1
2019-03-12T03:45:17.687Z,1025.1
2019-03-12T03:46:17.711Z,1025
2019-03-12T03:47:19.772Z,1025.1
2019-03-12T03:48:17.706Z,1025
2019-03-12T03:49:17.740Z,1025.1
2019-03-12T03:50:17.771Z,1025.1
2019-03-12T03:51:17.750Z,1025.1
2019-03-12T03:52:17.870Z,1025
2019-03-12T03:53:17.771Z,1025
2019-03-12T03:54:17.774Z,1025.2
2019-03-12T03:55:17.799Z,1025.1
2019-03-12T03:56:17.791Z,1025
2019-03-12T03:57:17.795Z,1025
2019-03-12T03:58:18.860Z,1025.1
2019-03-12T03:59:17.833Z,1025.1
2019-03-12T04:00:17.970Z,1025.1
2019-03-12T04:01:17.959Z,1025
2019-03-12T04:02:17.940Z,1025.1
2019-03-12T04:03:17.849Z,1025.1
2019-03-12T04:04:17.849Z,1025.2
2019-03-12T04:05:17.882Z,1025.1
2019-03-12T04:06:17.859Z,1025.2
2019-03-12T04:07:17.946Z,1025.1
2019-03-12T04:08:17.893Z,1025.1
2019-03-12T04:09:17.912Z,1025.1
2019-03-12T04:10:17.910Z,1025.1
2019-03-12T04:11:17.914Z,1025.1
2019-03-12T04:12:17.958Z,1025.2
2019-03-12T04:13:17.964Z,1025.2
2019-03-12T04:14:17.952Z,1025.2
2019-03-12T04:15:18.103Z,1025.2
2019-03-12T04:16:18.020Z,1025.2
2019-03-12T04:17:17.959Z,1025.2
2019-03-12T04:18:17.972Z,1025.2
2019-03-12T04:19:17.994Z,1025.2
2019-03-12T04:20:18.024Z,1025.2
2019-03-12T04:21:18.056Z,1025.2
2019-03-12T04:22:18.041Z,1025.2
2019-03-12T04:23:18.019Z,1025.3
2019-03-12T04:24:18.030Z,1025.2
2019-03-12T04:25:18.080Z,1025.3
2019-03-12T04:26:18.324Z,1025.3
2019-03-12T04:27:18.051Z,1025.2
2019-03-12T04:28:18.057Z,1025.2
2019-03-12T04:29:18.054Z,1025.2
2019-03-12T04:30:18.102Z,1025.2
2019-03-12T04:31:18.030Z,1025.2
2019-03-12T04:32:18.082Z,1025.3
2019-03-12T04:33:20.524Z,1025.2
2019-03-12T04:34:18.107Z,1025.2
2019-03-12T04:35:18.087Z,1025.2
2019-03-12T04:36:19.171Z,1025.2
2019-03-12T04:37:18.107Z,1025.2
2019-03-12T04:38:18.122Z,1025.2
2019-03-12T04:39:18.142Z,1025.3
2019-03-12T04:40:18.371Z,1025.3
2019-03-12T04:41:18.185Z,1025.3
2019-03-12T04:42:18.128Z,1025.3
2019-03-12T04:43:18.149Z,1025.3
2019-03-12T04:44:18.200Z,1025.4
2019-03-12T04:45:18.369Z,1025.4
2019-03-12T04:46:18.188Z,1025.4
2019-03-12T04:47:18.193Z,1025.4
2019-03-12T04:48:18.300Z,1025.4
2019-03-12T04:49:18.210Z,1025.4
2019-03-12T04:50:18.210Z,1025.4
2019-03-12T04:51:18.227Z,1025.5
2019-03-12T04:52:18.248Z,1025.4
2019-03-12T04:53:18.265Z,1025.4
2019-03-12T04:54:18.233Z,1025.3
2019-03-12T04:55:18.245Z,1025.4
2019-03-12T04:56:18.244Z,1025.3
2019-03-12T04:57:18.371Z,1025.3
2019-03-12T04:58:18.503Z,1025.3
2019-03-12T04:59:18.273Z,1025.3
2019-03-12T05:00:18.269Z,1025.3
2019-03-12T05:01:18.307Z,1025.3
2019-03-12T05:02:18.336Z,1025.3
2019-03-12T05:03:18.283Z,1025.3
2019-03-12T05:04:18.289Z,1025.3
2019-03-12T05:05:18.363Z,1025.3
2019-03-12T05:06:19.696Z,1025.3
2019-03-12T05:07:18.313Z,1025.3
2019-03-12T05:08:18.342Z,1025.3
2019-03-12T05:09:18.465Z,1025.4
2019-03-12T05:10:18.375Z,1025.3
2019-03-12T05:11:18.382Z,1025.3
2019-03-12T05:12:18.433Z,1025.3
2019-03-12T05:13:19.437Z,1025.4
2019-03-12T05:14:18.360Z,1025.4
2019-03-12T05:15:18.411Z,1025.4
2019-03-12T05:16:18.420Z,1025.4
2019-03-12T05:17:18.423Z,1025.4
2019-03-12T05:18:18.385Z,1025.4
2019-03-12T05:19:18.427Z,1025.3
2019-03-12T05:20:18.450Z,1025.3
2019-03-12T05:21:18.435Z,1025.4
2019-03-12T05:22:18.411Z,1025.4
2019-03-12T05:23:18.501Z,1025.3
2019-03-12T05:24:18.467Z,1025.3
2019-03-12T05:25:18.428Z,1025.4
2019-03-12T05:26:18.476Z,1025.4
2019-03-12T05:27:18.441Z,1025.3
2019-03-12T05:28:18.472Z,1025.4
2019-03-12T05:29:18.494Z,1025.4
2019-03-12T05:30:18.494Z,1025.5
2019-03-12T05:31:18.558Z,1025.4
2019-03-12T05:32:18.487Z,1025.5
2019-03-12T05:33:18.509Z,1025.5
2019-03-12T05:34:18.505Z,1025.6
2019-03-12T05:35:18.725Z,1025.5
2019-03-12T05:36:18.603Z,1025.6
2019-03-12T05:37:18.508Z,1025.7
2019-03-12T05:38:18.512Z,1025.6
2019-03-12T05:39:18.555Z,1025.6
2019-03-12T05:40:18.578Z,1025.6
2019-03-12T05:41:18.541Z,1025.7
2019-03-12T05:42:18.616Z,1025.7
2019-03-12T05:43:18.518Z,1025.6
2019-03-12T05:44:18.529Z,1025.6
2019-03-12T05:45:18.566Z,1025.7
2019-03-12T05:46:18.567Z,1025.6
2019-03-12T05:47:18.559Z,1025.8
2019-03-12T05:48:18.594Z,1025.7
2019-03-12T05:49:18.545Z,1025.8
2019-03-12T05:50:18.587Z,1025.8
2019-03-12T05:51:18.596Z,1025.8
2019-03-12T05:52:18.610Z,1025.9
2019-03-12T05:53:18.597Z,1025.9
2019-03-12T05:54:18.591Z,1025.9
2019-03-12T05:55:18.614Z,1025.8
2019-03-12T05:56:18.595Z,1025.8
2019-03-12T05:57:18.673Z,1025.9
2019-03-12T05:58:19.655Z,1025.9
2019-03-12T05:59:18.642Z,1025.8
2019-03-12T06:00:18.610Z,1025.8
2019-03-12T06:01:18.616Z,1025.9
2019-03-12T06:02:18.621Z,1025.9
2019-03-12T06:03:18.623Z,1025.8
2019-03-12T06:04:18.646Z,1025.9
2019-03-12T06:05:18.619Z,1025.9
2019-03-12T06:06:18.623Z,1025.9
2019-03-12T06:07:18.669Z,1025.9
2019-03-12T06:08:18.662Z,1025.9
2019-03-12T06:09:29.623Z,1025.9
2019-03-12T06:10:18.675Z,1025.9
2019-03-12T06:11:18.662Z,1025.9
2019-03-12T06:12:18.760Z,1025.9
2019-03-12T06:13:18.694Z,1025.8
2019-03-12T06:14:18.665Z,1025.9
2019-03-12T06:15:18.702Z,1025.8
2019-03-12T06:16:18.663Z,1025.9
2019-03-12T06:17:18.666Z,1025.9
2019-03-12T06:18:18.641Z,1025.9
2019-03-12T06:19:18.663Z,1025.8
2019-03-12T06:20:18.715Z,1025.8
2019-03-12T06:21:18.716Z,1025.9
2019-03-12T06:22:18.659Z,1025.9
2019-03-12T06:23:18.734Z,1025.9
2019-03-12T06:24:18.705Z,1025.8
2019-03-12T06:25:18.664Z,1025.8
2019-03-12T06:26:18.691Z,1025.7
2019-03-12T06:27:18.695Z,1025.8
2019-03-12T06:28:18.719Z,1025.7
2019-03-12T06:29:18.671Z,1025.7
2019-03-12T06:30:18.710Z,1025.8
2019-03-12T06:31:18.705Z,1025.8
2019-03-12T06:32:18.713Z,1025.7
2019-03-12T06:33:18.733Z,1025.7
2019-03-12T06:34:18.733Z,1025.6
2019-03-12T06:35:21.284Z,1025.7
2019-03-12T06:36:18.783Z,1025.6
2019-03-12T06:37:18.713Z,1025.7
2019-03-12T06:38:18.760Z,1025.7
2019-03-12T06:39:18.725Z,1025.7
2019-03-12T06:40:18.758Z,1025.8
2019-03-12T06:41:18.751Z,1025.6
2019-03-12T06:42:18.712Z,1025.7
2019-03-12T06:43:18.735Z,1025.7
2019-03-12T06:44:18.737Z,1025.7
2019-03-12T06:45:18.726Z,1025.7
2019-03-12T06:46:18.726Z,1025.7
2019-03-12T06:47:18.768Z,1025.7
2019-03-12T06:48:18.779Z,1025.7
2019-03-12T06:49:18.755Z,1025.7
2019-03-12T06:50:18.806Z,1025.7
2019-03-12T06:51:18.766Z,1025.7
2019-03-12T06:52:18.783Z,1025.8
2019-03-12T06:53:18.797Z,1025.7
2019-03-12T06:54:18.871Z,1025.8
2019-03-12T06:55:18.830Z,1025.8
2019-03-12T06:56:18.827Z,1025.8
2019-03-12T06:57:18.772Z,1025.8
2019-03-12T06:58:18.797Z,1025.7
2019-03-12T06:59:18.768Z,1025.7
2019-03-12T07:00:18.788Z,1025.7
2019-03-12T07:01:18.823Z,1025.8
2019-03-12T07:02:18.806Z,1025.8
2019-03-12T07:03:18.794Z,1025.8
2019-03-12T07:04:21.018Z,1025.8
2019-03-12T07:05:18.846Z,1025.8
2019-03-12T07:06:18.856Z,1025.8
2019-03-12T07:07:19.873Z,1025.7
2019-03-12T07:08:18.813Z,1025.7
2019-03-12T07:09:18.852Z,1025.8
2019-03-12T07:10:18.837Z,1025.7
2019-03-12T07:11:18.837Z,1025.7
2019-03-12T07:12:18.825Z,1025.8
2019-03-12T07:13:18.992Z,1025.8
2019-03-12T07:14:18.861Z,1025.7
2019-03-12T07:15:18.905Z,1025.7
2019-03-12T07:16:18.859Z,1025.7
2019-03-12T07:17:18.874Z,1025.7
2019-03-12T07:18:18.882Z,1025.7
2019-03-12T07:19:18.839Z,1025.8
2019-03-12T07:20:18.915Z,1025.7
2019-03-12T07:21:18.866Z,1025.7
2019-03-12T07:22:18.871Z,1025.7
2019-03-12T07:23:18.898Z,1025.8
2019-03-12T07:24:19.126Z,1025.5
2019-03-12T07:25:18.854Z,1025.7
2019-03-12T07:26:18.875Z,1025.7
2019-03-12T07:27:18.892Z,1025.6
2019-03-12T07:28:18.915Z,1025.6
2019-03-12T07:29:18.978Z,1025.7
2019-03-12T07:30:18.917Z,1025.7
2019-03-12T07:31:19.086Z,1025.6
2019-03-12T07:32:18.926Z,1025.7
2019-03-12T07:33:18.964Z,1025.6
2019-03-12T07:34:18.948Z,1025.6
2019-03-12T07:35:19.066Z,1025.5
2019-03-12T07:36:18.945Z,1025.6
2019-03-12T07:37:18.954Z,1025.6
2019-03-12T07:38:18.919Z,1025.6
2019-03-12T07:39:18.972Z,1025.6
2019-03-12T07:40:20.178Z,1025.6
2019-03-12T07:41:24.830Z,1025.6
2019-03-12T07:42:18.994Z,1025.6
2019-03-12T07:43:18.965Z,1025.7
2019-03-12T07:44:19.080Z,1025.6
2019-03-12T07:45:18.962Z,1025.6
2019-03-12T07:46:19.201Z,1025.6
2019-03-12T07:47:19.030Z,1025.6
2019-03-12T07:48:19.005Z,1025.6
2019-03-12T07:49:18.993Z,1025.5
2019-03-12T07:50:19.059Z,1025.5
2019-03-12T07:51:19.049Z,1025.6
2019-03-12T07:52:19.048Z,1025.5
2019-03-12T07:53:19.064Z,1025.5
2019-03-12T07:54:19.086Z,1025.5
2019-03-12T07:55:19.055Z,1025.5
2019-03-12T07:56:19.228Z,1025.5
2019-03-12T07:57:19.147Z,1025.4
2019-03-12T07:58:19.173Z,1025.5
2019-03-12T07:59:19.089Z,1025.4
2019-03-12T08:00:19.149Z,1025.5
2019-03-12T08:01:19.218Z,1025.5
2019-03-12T08:02:19.128Z,1025.4
2019-03-12T08:03:19.139Z,1025.5
2019-03-12T08:04:19.206Z,1025.5
2019-03-12T08:05:19.204Z,1025.4
2019-03-12T08:06:19.180Z,1025.5
2019-03-12T08:07:19.180Z,1025.4
2019-03-12T08:08:19.222Z,1025.4
2019-03-12T08:09:19.228Z,1025.4
2019-03-12T08:10:19.221Z,1025.5
2019-03-12T08:11:19.250Z,1025.4
2019-03-12T08:12:19.271Z,1025.3
2019-03-12T08:13:19.303Z,1025.4
2019-03-12T08:14:19.270Z,1025.4
2019-03-12T08:15:23.230Z,1025.3
2019-03-12T08:16:19.392Z,1025.3
2019-03-12T08:17:19.255Z,1025.3
2019-03-12T08:18:19.286Z,1025.3
2019-03-12T08:19:19.326Z,1025.3
2019-03-12T08:20:19.304Z,1025.3
2019-03-12T08:21:22.444Z,1025.3
2019-03-12T08:22:19.338Z,1025.3
2019-03-12T08:23:19.352Z,1025.3
2019-03-12T08:24:19.324Z,1025.2
2019-03-12T08:25:19.359Z,1025.2
2019-03-12T08:26:19.370Z,1025.2
2019-03-12T08:27:21.375Z,1025.2
2019-03-12T08:28:19.360Z,1025.2
2019-03-12T08:29:19.504Z,1025.2
2019-03-12T08:30:19.392Z,1025.3
2019-03-12T08:31:19.439Z,1025.2
2019-03-12T08:32:19.385Z,1025.2
2019-03-12T08:33:19.378Z,1025.2
2019-03-12T08:34:19.387Z,1025.3
2019-03-12T08:35:19.391Z,1025.4
2019-03-12T08:36:19.452Z,1025.3
2019-03-12T08:37:19.403Z,1025.3
2019-03-12T08:38:19.443Z,1025.3
2019-03-12T08:39:19.434Z,1025.3
2019-03-12T08:40:19.547Z,1025.3
2019-03-12T08:41:19.467Z,1025.3
2019-03-12T08:42:19.536Z,1025.3
2019-03-12T08:43:19.630Z,1025.3
2019-03-12T08:44:19.531Z,1025.3
2019-03-12T08:45:19.459Z,1025.4
2019-03-12T08:46:22.194Z,1025.3
2019-03-12T08:47:19.723Z,1025.3
2019-03-12T08:48:19.486Z,1025.4
2019-03-12T08:49:19.496Z,1025.3
2019-03-12T08:50:19.547Z,1025.3
2019-03-12T08:51:19.511Z,1025.3
2019-03-12T08:52:19.674Z,1025.3
2019-03-12T08:53:19.588Z,1025.3
2019-03-12T08:54:21.414Z,1025.3
2019-03-12T08:55:19.570Z,1025.3
2019-03-12T08:56:19.511Z,1025.3
2019-03-12T08:57:19.577Z,1025.3
2019-03-12T08:58:19.748Z,1025.1
2019-03-12T08:59:19.590Z,1025.1
2019-03-12T09:00:19.573Z,1025.2
2019-03-12T09:01:19.534Z,1025.2
2019-03-12T09:02:19.675Z,1025.2
2019-03-12T09:03:19.565Z,1025.2
2019-03-12T09:04:19.561Z,1025.1
2019-03-12T09:05:19.615Z,1025.1
2019-03-12T09:06:19.569Z,1025.1
2019-03-12T09:07:19.585Z,1025.1
2019-03-12T09:08:19.576Z,1025.1
2019-03-12T09:09:19.824Z,1025.1
2019-03-12T09:10:19.609Z,1025.1
2019-03-12T09:11:19.611Z,1025.1
2019-03-12T09:12:19.598Z,1025.1
2019-03-12T09:13:19.605Z,1025
2019-03-12T09:14:19.649Z,1025
2019-03-12T09:15:22.197Z,1025
2019-03-12T09:16:19.616Z,1024.9
2019-03-12T09:17:19.610Z,1025
2019-03-12T09:18:19.638Z,1024.9
2019-03-12T09:19:19.634Z,1024.8
2019-03-12T09:20:19.660Z,1024.9
2019-03-12T09:21:19.697Z,1024.8
2019-03-12T09:22:19.715Z,1024.8
2019-03-12T09:23:19.677Z,1024.8
2019-03-12T09:24:19.749Z,1024.9
2019-03-12T09:25:19.761Z,1024.9
2019-03-12T09:26:19.679Z,1025
2019-03-12T09:27:19.697Z,1024.9
2019-03-12T09:28:19.748Z,1024.9
2019-03-12T09:29:19.755Z,1024.9
2019-03-12T09:30:19.718Z,1024.7
2019-03-12T09:31:22.186Z,1024.9
2019-03-12T09:32:19.673Z,1024.8
2019-03-12T09:33:19.716Z,1024.8
2019-03-12T09:34:19.670Z,1024.8
2019-03-12T09:35:19.704Z,1024.8
2019-03-12T09:36:19.731Z,1024.8
2019-03-12T09:37:19.723Z,1024.8
2019-03-12T09:38:19.774Z,1024.8
2019-03-12T09:39:19.845Z,1024.8
2019-03-12T09:40:19.748Z,1024.8
2019-03-12T09:41:19.726Z,1024.8
2019-03-12T09:42:20.755Z,1024.8
2019-03-12T09:43:19.733Z,1024.7
2019-03-12T09:44:19.731Z,1024.7
2019-03-12T09:45:19.785Z,1024.7
2019-03-12T09:46:19.763Z,1024.6
2019-03-12T09:47:19.769Z,1024.8
2019-03-12T09:48:19.771Z,1024.7
2019-03-12T09:49:19.768Z,1024.6
2019-03-12T09:50:19.775Z,1024.7
2019-03-12T09:51:19.775Z,1024.6
2019-03-12T09:52:19.780Z,1024.6
2019-03-12T09:53:19.767Z,1024.6
2019-03-12T09:54:19.796Z,1024.6
2019-03-12T09:55:19.794Z,1024.6
2019-03-12T09:56:19.835Z,1024.5
2019-03-12T09:57:19.814Z,1024.5
2019-03-12T09:58:19.799Z,1024.5
2019-03-12T09:59:19.792Z,1024.6
2019-03-12T10:00:19.934Z,1024.4
2019-03-12T10:01:19.830Z,1024.5
2019-03-12T10:02:19.821Z,1024.5
2019-03-12T10:03:19.835Z,1024.4
2019-03-12T10:04:19.876Z,1024.3
2019-03-12T10:05:20.073Z,1024.4
2019-03-12T10:06:19.840Z,1024.3
2019-03-12T10:07:19.838Z,1024.3
2019-03-12T10:08:20.913Z,1024.4
2019-03-12T10:09:19.864Z,1024.3
2019-03-12T10:10:19.938Z,1024.3
2019-03-12T10:11:19.869Z,1024.4
2019-03-12T10:12:19.914Z,1024.4
2019-03-12T10:13:19.846Z,1024.4
2019-03-12T10:14:19.883Z,1024.3
2019-03-12T10:15:19.929Z,1024.4
2019-03-12T10:16:19.917Z,1024.3
2019-03-12T10:17:20.390Z,1024.3
2019-03-12T10:18:19.903Z,1024.3
2019-03-12T10:19:19.929Z,1024.3
2019-03-12T10:20:19.958Z,1024.4
2019-03-12T10:21:19.954Z,1024.3
2019-03-12T10:22:19.925Z,1024.3
2019-03-12T10:23:19.935Z,1024.3
2019-03-12T10:24:20.017Z,1024.3
2019-03-12T10:25:19.924Z,1024.2
2019-03-12T10:26:19.952Z,1024.2
2019-03-12T10:27:20.055Z,1024.1
2019-03-12T10:28:19.919Z,1024.1
2019-03-12T10:29:19.954Z,1024.1
2019-03-12T10:30:19.965Z,1024.1
2019-03-12T10:31:19.923Z,1024
2019-03-12T10:32:19.967Z,1024
2019-03-12T10:33:19.974Z,1023.9
2019-03-12T10:34:28.757Z,1023.9
2019-03-12T10:35:20.064Z,1024
2019-03-12T10:36:20.181Z,1023.9
2019-03-12T10:37:19.998Z,1023.9
2019-03-12T10:38:19.982Z,1024
2019-03-12T10:39:20.012Z,1023.9
2019-03-12T10:40:19.974Z,1023.9
2019-03-12T10:41:20.030Z,1023.9
2019-03-12T10:42:20.016Z,1023.8
2019-03-12T10:43:20.011Z,1023.7
2019-03-12T10:44:20.011Z,1023.7
2019-03-12T10:45:20.056Z,1023.7
2019-03-12T10:46:20.044Z,1023.7
2019-03-12T10:47:20.052Z,1023.7
2019-03-12T10:48:20.062Z,1023.6
2019-03-12T10:49:20.079Z,1023.7
2019-03-12T10:50:20.052Z,1023.7
2019-03-12T10:51:20.091Z,1023.6
2019-03-12T10:52:20.064Z,1023.6
2019-03-12T10:53:20.115Z,1023.7
2019-03-12T10:54:20.061Z,1023.6
2019-03-12T10:55:20.088Z,1023.7
2019-03-12T10:56:20.073Z,1023.6
2019-03-12T10:57:21.522Z,1023.5
2019-03-12T10:58:20.144Z,1023.6
2019-03-12T10:59:20.112Z,1023.6
2019-03-12T11:00:20.135Z,1023.6
2019-03-12T11:01:20.161Z,1023.5
2019-03-12T11:02:20.127Z,1023.5
2019-03-12T11:03:20.281Z,1023.6
2019-03-12T11:04:20.169Z,1023.6
2019-03-12T11:05:21.247Z,1023.5
2019-03-12T11:06:20.185Z,1023.5
2019-03-12T11:07:20.178Z,1023.5
2019-03-12T11:08:20.186Z,1023.4
2019-03-12T11:09:20.182Z,1023.5
2019-03-12T11:10:20.229Z,1023.3
2019-03-12T11:11:20.208Z,1023.3
2019-03-12T11:12:20.223Z,1023.4
2019-03-12T11:13:20.220Z,1023.3
2019-03-12T11:14:20.229Z,1023.3
2019-03-12T11:15:20.308Z,1023.3
2019-03-12T11:16:20.495Z,1023.2
2019-03-12T11:17:20.494Z,1023.2
2019-03-12T11:18:20.247Z,1023.2
2019-03-12T11:19:20.261Z,1023.2
2019-03-12T11:20:20.260Z,1023.2
2019-03-12T11:21:20.263Z,1023.3
2019-03-12T11:22:20.487Z,1023.3
2019-03-12T11:23:20.281Z,1023.3
2019-03-12T11:24:20.315Z,1023.2
2019-03-12T11:25:26.896Z,1023.2
2019-03-12T11:26:20.322Z,1023.2
2019-03-12T11:27:20.288Z,1023.3
2019-03-12T11:28:20.342Z,1023
2019-03-12T11:29:20.407Z,1023.2
2019-03-12T11:30:20.362Z,1023.2
2019-03-12T11:31:20.381Z,1023.2
2019-03-12T11:32:20.347Z,1023.1
2019-03-12T11:33:20.348Z,1023.1
2019-03-12T11:34:20.355Z,1023
2019-03-12T11:35:20.445Z,1023.1
2019-03-12T11:36:20.543Z,1023
2019-03-12T11:37:20.419Z,1023.1
2019-03-12T11:38:20.384Z,1023
2019-03-12T11:39:20.446Z,1022.9
2019-03-12T11:40:20.457Z,1023
2019-03-12T11:41:20.475Z,1023
2019-03-12T11:42:20.401Z,1022.9
2019-03-12T11:43:20.408Z,1023
2019-03-12T11:44:20.378Z,1022.9
2019-03-12T11:45:25.810Z,1022.9
2019-03-12T11:46:20.449Z,1022.9
2019-03-12T11:47:20.442Z,1022.9
2019-03-12T11:48:20.445Z,1022.9
2019-03-12T11:49:20.442Z,1022.9
2019-03-12T11:50:20.743Z,1022.8
2019-03-12T11:51:20.422Z,1022.7
2019-03-12T11:52:20.453Z,1022.8
2019-03-12T11:53:20.516Z,1022.7
2019-03-12T11:54:20.502Z,1022.7
2019-03-12T11:55:23.109Z,1022.7
2019-03-12T11:56:20.508Z,1022.7
2019-03-12T11:57:20.553Z,1022.5
2019-03-12T11:58:20.461Z,1022.5
2019-03-12T11:59:20.538Z,1022.5
2019-03-12T12:00:20.502Z,1022.5
2019-03-12T12:01:23.166Z,1022.5
2019-03-12T12:02:20.622Z,1022.4
2019-03-12T12:03:20.473Z,1022.5
2019-03-12T12:04:20.513Z,1022.5
2019-03-12T12:05:20.494Z,1022.4
2019-03-12T12:06:20.526Z,1022.4
2019-03-12T12:07:20.578Z,1022.2
2019-03-12T12:08:20.564Z,1022.2
2019-03-12T12:09:20.574Z,1022.2
2019-03-12T12:10:20.536Z,1022.2
2019-03-12T12:11:20.521Z,1022.2
2019-03-12T12:12:20.489Z,1022.3
2019-03-12T12:13:20.506Z,1022.3
2019-03-12T12:14:20.535Z,1022.2
2019-03-12T12:15:21.470Z,1022.1
2019-03-12T12:16:20.645Z,1022.2
2019-03-12T12:17:20.522Z,1022.2
2019-03-12T12:18:20.546Z,1022.1
2019-03-12T12:19:20.536Z,1022.2
2019-03-12T12:20:29.242Z,1022.1
2019-03-12T12:21:20.573Z,1022.1
2019-03-12T12:22:20.591Z,1022
2019-03-12T12:23:20.584Z,1022.1
2019-03-12T12:24:20.624Z,1021.9
2019-03-12T12:25:20.763Z,1021.9
2019-03-12T12:26:20.611Z,1021.8
2019-03-12T12:27:20.580Z,1021.9
2019-03-12T12:28:20.666Z,1021.9
2019-03-12T12:29:20.609Z,1021.9
2019-03-12T12:30:20.603Z,1021.9
2019-03-12T12:31:20.588Z,1021.8
2019-03-12T12:32:20.653Z,1021.9
2019-03-12T12:33:20.611Z,1021.7
2019-03-12T12:34:20.642Z,1021.9